createdAt,value
2023-02-19T00:00:06.582Z,2.12
2023-02-19T00:02:36.187Z,2.03
2023-02-19T00:05:08.952Z,2.33
2023-02-19T00:07:35.549Z,2.00
2023-02-19T00:10:02.148Z,2.00
2023-02-19T00:12:28.749Z,1.75
2023-02-19T00:14:57.207Z,1.95
2023-02-19T00:17:23.811Z,2.60
2023-02-19T00:19:53.283Z,2.20
2023-02-19T00:22:19.878Z,1.70
2023-02-19T00:24:48.971Z,1.77
2023-02-19T00:27:16.021Z,1.70
2023-02-19T00:29:42.637Z,1.80
2023-02-19T00:32:43.708Z,1.80
2023-02-19T00:35:28.702Z,1.85
2023-02-19T00:37:55.242Z,1.70
2023-02-19T00:40:22.767Z,1.55
2023-02-19T00:42:49.311Z,1.70
2023-02-19T00:45:15.846Z,1.58
2023-02-19T00:47:42.402Z,1.90
2023-02-19T00:50:18.366Z,1.60
2023-02-19T00:52:44.910Z,1.37
2023-02-19T00:55:16.828Z,1.55
2023-02-19T00:57:43.362Z,1.48
2023-02-19T01:00:10.925Z,1.77
2023-02-19T01:02:59.530Z,1.70
2023-02-19T01:05:44.806Z,1.80
2023-02-19T01:08:11.322Z,1.90
2023-02-19T01:10:37.866Z,1.98
2023-02-19T01:13:13.548Z,2.17
2023-02-19T01:15:40.772Z,2.00
2023-02-19T01:18:07.583Z,1.73
2023-02-19T01:20:45.036Z,1.90
2023-02-19T01:23:13.079Z,2.05
2023-02-19T01:25:42.878Z,1.65
2023-02-19T01:28:11.004Z,1.70
2023-02-19T01:33:58.398Z,1.85
2023-02-19T01:36:37.794Z,1.98
2023-02-19T01:39:05.939Z,2.00
2023-02-19T01:41:36.430Z,2.03
2023-02-19T01:44:05.234Z,1.95
2023-02-19T01:46:33.643Z,1.75
2023-02-19T01:52:01.937Z,1.80
2023-02-19T01:54:37.746Z,1.92
2023-02-19T01:57:08.294Z,1.70
2023-02-19T01:59:35.289Z,1.60
2023-02-19T02:02:01.991Z,1.70
2023-02-19T02:04:43.754Z,1.70
2023-02-19T02:10:37.660Z,1.50
2023-02-19T02:13:04.374Z,1.50
2023-02-19T02:15:43.873Z,1.48
2023-02-19T02:18:36.622Z,1.58
2023-02-19T02:21:40.777Z,1.20
2023-02-19T02:24:10.261Z,1.35
2023-02-19T02:27:10.683Z,1.30
2023-02-19T02:30:34.708Z,1.62
2023-02-19T02:33:12.670Z,1.80
2023-02-19T02:36:03.709Z,1.50
2023-02-19T02:38:33.311Z,1.70
2023-02-19T02:41:00.280Z,1.85
2023-02-19T02:43:26.888Z,2.05
2023-02-19T02:46:24.338Z,1.60
2023-02-19T02:49:15.158Z,1.70
2023-02-19T02:51:47.353Z,1.80
2023-02-19T02:54:38.765Z,1.90
2023-02-19T02:57:06.936Z,1.62
2023-02-19T02:59:37.080Z,1.85
2023-02-19T03:02:14.941Z,1.60
2023-02-19T03:05:07.788Z,1.40
2023-02-19T03:07:40.110Z,1.45
2023-02-19T03:10:10.258Z,1.15
2023-02-19T03:12:58.817Z,1.33
2023-02-19T03:19:31.635Z,1.30
2023-02-19T03:22:01.250Z,1.33
2023-02-19T03:24:50.878Z,1.23
2023-02-19T03:27:21.092Z,1.00
2023-02-19T03:29:50.234Z,1.20
2023-02-19T03:32:33.445Z,1.73
2023-02-19T03:37:44.130Z,3.10
2023-02-19T03:40:12.077Z,2.40
2023-02-19T03:42:41.546Z,1.90
2023-02-19T03:45:58.548Z,2.10
2023-02-19T03:48:58.966Z,1.83
2023-02-19T03:51:39.587Z,1.30
2023-02-19T03:54:36.385Z,1.25
2023-02-19T03:57:23.657Z,1.70
2023-02-19T04:00:04.039Z,1.30
2023-02-19T04:02:41.315Z,1.40
2023-02-19T04:05:16.403Z,1.27
2023-02-19T04:07:47.843Z,1.33
2023-02-19T04:10:16.583Z,1.10
2023-02-19T04:12:49.521Z,1.30
2023-02-19T04:18:25.402Z,1.15
2023-02-19T04:20:52.806Z,1.08
2023-02-19T04:23:24.790Z,1.17
2023-02-19T04:25:56.868Z,1.20
2023-02-19T04:28:23.613Z,1.17
2023-02-19T04:30:50.413Z,1.05
2023-02-19T04:33:17.053Z,1.30
2023-02-19T04:35:43.615Z,1.20
2023-02-19T04:38:10.553Z,1.10
2023-02-19T04:40:37.073Z,1.12
2023-02-19T04:43:28.595Z,1.02
2023-02-19T04:46:07.730Z,1.30
2023-02-19T04:48:46.734Z,0.90
2023-02-19T04:51:13.511Z,1.20
2023-02-19T04:53:40.264Z,0.88
2023-02-19T04:56:09.237Z,1.20
2023-02-19T04:58:37.474Z,1.35
2023-02-19T05:01:04.566Z,1.30
2023-02-19T05:03:41.721Z,1.35
2023-02-19T05:06:11.117Z,1.30
2023-02-19T05:08:37.803Z,1.35
2023-02-19T05:11:07.142Z,1.37
2023-02-19T05:13:52.115Z,1.37
2023-02-19T05:16:49.688Z,1.17
2023-02-19T05:19:18.384Z,1.23
2023-02-19T05:21:44.939Z,1.20
2023-02-19T05:24:11.583Z,1.42
2023-02-19T05:26:38.140Z,1.45
2023-02-19T05:29:04.679Z,1.30
2023-02-19T05:34:20.182Z,1.70
2023-02-19T05:36:46.813Z,1.90
2023-02-19T05:39:13.421Z,2.25
2023-02-19T05:41:40.033Z,1.90
2023-02-19T05:44:30.802Z,2.05
2023-02-19T05:47:15.654Z,2.08
2023-02-19T05:49:42.262Z,1.98
2023-02-19T05:52:08.782Z,1.90
2023-02-19T05:54:35.347Z,2.00
2023-02-19T05:57:17.422Z,2.40
2023-02-19T05:59:44.002Z,1.92
2023-02-19T06:02:10.573Z,2.10
2023-02-19T06:04:37.780Z,2.60
2023-02-19T06:07:04.355Z,2.83
2023-02-19T06:09:32.320Z,2.85
2023-02-19T06:11:58.875Z,3.70
2023-02-19T06:14:25.531Z,3.75
2023-02-19T06:16:58.154Z,4.20
2023-02-19T06:19:52.818Z,4.03
2023-02-19T06:22:22.893Z,5.07
2023-02-19T06:24:49.431Z,4.95
2023-02-19T06:27:16.009Z,5.18
2023-02-19T06:29:42.636Z,6.15
2023-02-19T06:32:09.301Z,5.95
2023-02-19T06:34:36.269Z,6.05
2023-02-19T06:37:03.214Z,5.95
2023-02-19T06:39:35.344Z,6.72
2023-02-19T06:42:01.908Z,6.27
2023-02-19T06:44:28.439Z,6.30
2023-02-19T06:46:55.954Z,9.30
2023-02-19T06:49:22.858Z,10.20
2023-02-19T06:52:20.474Z,10.20
2023-02-19T06:55:11.862Z,9.90
2023-02-19T06:57:57.772Z,10.75
2023-02-19T07:00:27.012Z,10.50
2023-02-19T07:11:13.782Z,12.20
2023-02-19T07:13:40.428Z,12.70
2023-02-19T07:16:09.915Z,13.15
2023-02-19T07:18:37.736Z,13.73
2023-02-19T07:21:29.625Z,13.07
2023-02-19T07:24:27.901Z,12.82
2023-02-19T07:27:08.846Z,14.27
2023-02-19T07:29:35.389Z,13.82
2023-02-19T07:32:02.107Z,13.98
2023-02-19T07:34:28.644Z,13.82
2023-02-19T07:36:55.190Z,14.43
2023-02-19T07:39:21.755Z,14.87
2023-02-19T07:41:48.297Z,13.35
2023-02-19T07:44:16.784Z,14.57
2023-02-19T07:46:44.335Z,13.25
2023-02-19T07:49:10.907Z,13.90
2023-02-19T07:51:39.908Z,12.90
2023-02-19T07:54:07.724Z,13.30
2023-02-19T07:56:52.815Z,12.73
2023-02-19T07:59:47.339Z,12.63
2023-02-19T08:02:37.293Z,12.25
2023-02-19T08:05:05.544Z,12.50
2023-02-19T08:07:36.404Z,12.00
2023-02-19T08:10:30.543Z,11.85
2023-02-19T08:13:16.786Z,11.90
2023-02-19T08:15:43.706Z,12.82
2023-02-19T08:18:10.875Z,14.23
2023-02-19T08:20:37.728Z,14.15
2023-02-19T08:23:04.920Z,13.52
2023-02-19T08:25:31.998Z,13.75
2023-02-19T08:28:00.372Z,13.27
2023-02-19T08:30:28.515Z,12.35
2023-02-19T08:32:55.918Z,12.60
2023-02-19T08:35:22.749Z,11.35
2023-02-19T08:37:49.719Z,11.93
2023-02-19T08:40:16.476Z,12.23
2023-02-19T08:42:43.255Z,11.65
2023-02-19T08:45:10.150Z,12.50
2023-02-19T08:47:38.177Z,11.90
2023-02-19T08:50:06.197Z,12.05
2023-02-19T08:52:33.236Z,11.95
2023-02-19T08:55:00.261Z,12.93
2023-02-19T08:57:29.420Z,11.98
2023-02-19T08:59:59.488Z,13.95
2023-02-19T09:02:26.176Z,13.60
2023-02-19T09:04:52.738Z,13.13
2023-02-19T09:07:20.339Z,11.88
2023-02-19T09:09:46.891Z,12.77
2023-02-19T09:12:13.527Z,12.82
2023-02-19T09:14:40.513Z,12.85
2023-02-19T09:17:09.062Z,12.95
2023-02-19T09:19:36.497Z,13.85
2023-02-19T09:22:04.564Z,13.85
2023-02-19T09:24:31.967Z,13.13
2023-02-19T09:26:58.953Z,13.85
2023-02-19T09:29:27.367Z,13.40
2023-02-19T09:32:01.117Z,14.30
2023-02-19T09:34:28.948Z,13.18
2023-02-19T09:36:56.006Z,14.60
2023-02-19T09:39:22.657Z,13.65
2023-02-19T09:41:53.486Z,14.32
2023-02-19T09:44:42.020Z,13.85
2023-02-19T09:47:23.402Z,14.05
2023-02-19T09:49:55.860Z,13.15
2023-02-19T09:52:27.431Z,14.05
2023-02-19T09:54:59.415Z,13.82
2023-02-19T09:57:29.994Z,14.00
2023-02-19T10:00:09.654Z,14.77
2023-02-19T10:02:37.409Z,14.23
2023-02-19T10:05:11.393Z,14.02
2023-02-19T10:07:41.675Z,14.43
2023-02-19T10:10:35.716Z,15.52
2023-02-19T10:13:19.256Z,14.18
2023-02-19T10:15:50.809Z,14.65
2023-02-19T10:18:20.356Z,14.20
2023-02-19T10:20:48.897Z,14.50
2023-02-19T10:23:16.630Z,15.27
2023-02-19T10:25:49.334Z,14.82
2023-02-19T10:28:20.333Z,14.40
2023-02-19T10:30:53.232Z,15.68
2023-02-19T10:35:59.478Z,14.30
2023-02-19T10:38:39.059Z,15.05
2023-02-19T10:41:13.664Z,13.77
2023-02-19T10:43:50.986Z,13.05
2023-02-19T10:46:28.425Z,11.65
2023-02-19T10:49:06.657Z,11.60
2023-02-19T10:51:37.657Z,11.25
2023-02-19T10:54:14.851Z,11.55
2023-02-19T10:56:42.161Z,9.52
2023-02-19T10:59:28.792Z,9.82
2023-02-19T11:01:56.276Z,9.88
2023-02-19T11:04:24.180Z,9.75
2023-02-19T11:06:51.186Z,4.60
2023-02-19T11:09:36.547Z,2.70
2023-02-19T11:12:05.111Z,2.65
2023-02-19T11:14:33.856Z,2.10
2023-02-19T11:17:04.885Z,2.17
2023-02-19T11:19:37.074Z,1.90
2023-02-19T11:22:31.003Z,1.70
2023-02-19T11:25:07.919Z,1.30
2023-02-19T11:27:34.762Z,1.20
2023-02-19T11:30:22.761Z,1.30
2023-02-19T11:32:49.379Z,1.12
2023-02-19T11:35:17.928Z,1.20
2023-02-19T11:38:02.322Z,1.35
2023-02-19T11:40:57.571Z,1.50
2023-02-19T11:43:53.422Z,1.35
2023-02-19T11:46:45.438Z,1.80
2023-02-19T11:49:48.486Z,1.50
2023-02-19T11:52:32.936Z,1.20
2023-02-19T11:55:21.551Z,1.50
2023-02-19T11:58:14.630Z,1.40
2023-02-19T12:01:10.981Z,1.50
2023-02-19T12:04:03.368Z,1.62
2023-02-19T12:07:05.232Z,1.30
2023-02-19T12:09:55.982Z,1.30
2023-02-19T12:12:37.400Z,1.35
2023-02-19T12:15:26.272Z,1.20
2023-02-19T12:18:14.847Z,1.60
2023-02-19T12:20:52.490Z,1.50
2023-02-19T12:23:30.698Z,1.58
2023-02-19T12:26:06.296Z,1.30
2023-02-19T12:29:00.713Z,1.25
2023-02-19T12:32:04.385Z,1.20
2023-02-19T12:34:33.877Z,0.90
2023-02-19T12:37:18.992Z,0.82
2023-02-19T12:39:54.331Z,0.70
2023-02-19T12:42:42.565Z,0.90
2023-02-19T12:45:21.152Z,1.17
2023-02-19T12:48:01.108Z,1.87
2023-02-19T12:50:29.579Z,1.20
2023-02-19T12:53:05.451Z,0.93
2023-02-19T12:55:43.282Z,1.10
2023-02-19T12:58:48.213Z,1.00
2023-02-19T13:01:28.629Z,1.20
2023-02-19T13:04:23.512Z,1.30
2023-02-19T13:07:03.878Z,1.30
2023-02-19T13:09:33.902Z,1.10
2023-02-19T13:12:26.526Z,1.05
2023-02-19T13:15:01.217Z,0.80
2023-02-19T13:18:01.331Z,1.20
2023-02-19T13:20:41.158Z,1.15
2023-02-19T13:23:34.847Z,1.10
2023-02-19T13:26:19.603Z,0.95
2023-02-19T13:29:07.691Z,1.37
2023-02-19T13:31:49.601Z,1.23
2023-02-19T13:34:37.659Z,1.60
2023-02-19T13:37:04.670Z,1.50
2023-02-19T13:39:31.573Z,1.50
2023-02-19T13:42:01.801Z,1.40
2023-02-19T13:44:31.671Z,1.40
2023-02-19T13:46:58.918Z,1.52
2023-02-19T13:49:28.476Z,1.35
2023-02-19T13:52:02.269Z,1.62
2023-02-19T13:54:35.936Z,1.10
2023-02-19T13:57:24.418Z,1.60
2023-02-19T13:59:55.010Z,1.10
2023-02-19T14:02:21.536Z,1.30
2023-02-19T14:04:53.008Z,1.50
2023-02-19T14:07:21.411Z,1.77
2023-02-19T14:09:48.516Z,1.75
2023-02-19T14:12:16.013Z,1.20
2023-02-19T14:14:53.579Z,1.27
2023-02-19T14:17:35.275Z,1.25
2023-02-19T14:20:17.168Z,1.02
2023-02-19T14:22:47.134Z,1.00
2023-02-19T14:25:32.052Z,0.88
2023-02-19T14:28:10.726Z,1.02
2023-02-19T14:30:58.829Z,1.10
2023-02-19T14:33:40.129Z,0.90
2023-02-19T14:36:23.445Z,0.90
2023-02-19T14:39:02.108Z,0.90
2023-02-19T14:41:32.548Z,1.10
2023-02-19T14:44:00.808Z,1.20
2023-02-19T14:46:45.278Z,1.00
2023-02-19T14:49:34.406Z,1.12
2023-02-19T14:52:05.193Z,1.08
2023-02-19T14:54:40.950Z,1.10
2023-02-19T14:57:15.894Z,1.23
2023-02-19T14:59:53.862Z,1.37
2023-02-19T15:02:21.352Z,1.40
2023-02-19T15:04:48.341Z,4.62
2023-02-19T15:07:23.531Z,16.52
2023-02-19T15:09:57.522Z,12.88
2023-02-19T15:12:26.890Z,9.40
2023-02-19T15:14:57.052Z,4.80
2023-02-19T15:17:30.194Z,2.92
2023-02-19T15:20:03.055Z,2.45
2023-02-19T15:25:02.835Z,1.15
2023-02-19T15:27:30.036Z,1.20
2023-02-19T15:29:56.732Z,1.30
2023-02-19T15:32:26.701Z,1.35
2023-02-19T15:35:04.180Z,2.78
2023-02-19T15:37:33.812Z,3.40
2023-02-19T15:40:05.663Z,1.50
2023-02-19T15:42:34.939Z,1.80
2023-02-19T15:45:07.556Z,1.20
2023-02-19T15:47:36.885Z,5.50
2023-02-19T15:50:15.243Z,5.53
2023-02-19T15:52:59.416Z,3.17
2023-02-19T15:55:41.590Z,2.92
2023-02-19T15:58:48.349Z,2.50
2023-02-19T16:01:34.271Z,1.80
2023-02-19T16:04:01.325Z,2.12
2023-02-19T16:06:29.000Z,1.83
2023-02-19T16:09:02.213Z,1.37
2023-02-19T16:11:34.157Z,1.20
2023-02-19T16:14:26.869Z,1.20
2023-02-19T16:17:11.975Z,1.62
2023-02-19T16:20:00.384Z,1.50
2023-02-19T16:22:30.711Z,1.02
2023-02-19T16:25:07.871Z,0.75
2023-02-19T16:27:39.864Z,1.20
2023-02-19T16:30:06.845Z,1.48
2023-02-19T16:32:33.868Z,0.90
2023-02-19T16:35:00.533Z,1.00
2023-02-19T16:37:42.278Z,1.00
2023-02-19T16:40:08.758Z,1.00
2023-02-19T16:42:56.539Z,0.77
2023-02-19T16:45:24.912Z,1.10
2023-02-19T16:47:52.507Z,1.83
2023-02-19T16:50:22.212Z,2.20
2023-02-19T16:52:59.667Z,2.40
2023-02-19T16:55:27.893Z,1.50
2023-02-19T16:57:56.775Z,0.80
2023-02-19T17:00:26.040Z,1.00
2023-02-19T17:02:58.516Z,0.82
2023-02-19T17:05:27.844Z,0.77
2023-02-19T17:07:54.559Z,0.80
2023-02-19T17:10:24.397Z,0.90
2023-02-19T17:12:52.785Z,0.70
2023-02-19T17:15:19.385Z,0.60
2023-02-19T17:17:46.000Z,0.90
2023-02-19T17:20:15.619Z,1.10
2023-02-19T17:22:42.913Z,0.85
2023-02-19T17:25:09.700Z,1.08
2023-02-19T17:27:36.923Z,0.98
2023-02-19T17:30:04.009Z,1.10
2023-02-19T17:32:30.716Z,1.00
2023-02-19T17:34:57.307Z,0.82
2023-02-19T17:37:23.875Z,0.93
2023-02-19T17:39:50.484Z,1.45
2023-02-19T17:42:17.084Z,1.48
2023-02-19T17:44:44.101Z,1.12
2023-02-19T17:47:10.629Z,1.08
2023-02-19T17:49:37.205Z,0.90
2023-02-19T17:52:04.632Z,1.00
2023-02-19T17:54:31.252Z,1.30
2023-02-19T17:56:57.863Z,1.23
2023-02-19T17:59:24.420Z,1.10
2023-02-19T18:01:51.088Z,1.17
2023-02-19T18:04:17.688Z,1.05
2023-02-19T18:06:44.624Z,0.62
2023-02-19T18:09:14.813Z,0.82
2023-02-19T18:11:45.959Z,0.98
2023-02-19T18:14:12.528Z,0.70
2023-02-19T18:16:49.801Z,1.17
2023-02-19T18:19:17.011Z,1.00
2023-02-19T18:21:43.584Z,1.20
2023-02-19T18:24:10.192Z,1.00
2023-02-19T18:26:36.987Z,0.85
2023-02-19T18:29:05.357Z,0.93
2023-02-19T18:31:34.511Z,0.90
2023-02-19T18:34:01.211Z,1.27
2023-02-19T18:36:27.749Z,1.00
2023-02-19T18:38:54.370Z,1.30
2023-02-19T18:41:21.500Z,1.23
2023-02-19T18:43:48.955Z,1.12
2023-02-19T18:46:15.626Z,1.00
2023-02-19T18:48:42.291Z,1.00
2023-02-19T18:51:12.434Z,0.90
2023-02-19T18:53:39.146Z,1.00
2023-02-19T18:56:08.921Z,0.90
2023-02-19T18:58:35.757Z,0.95
2023-02-19T19:01:02.384Z,0.90
2023-02-19T19:03:32.506Z,1.00
2023-02-19T19:06:02.174Z,1.17
2023-02-19T19:08:30.687Z,1.20
2023-02-19T19:10:57.367Z,1.30
2023-02-19T19:13:24.223Z,1.30
2023-02-19T19:15:51.345Z,0.90
2023-02-19T19:18:18.467Z,1.20
2023-02-19T19:20:45.048Z,1.35
2023-02-19T19:23:12.316Z,1.55
2023-02-19T19:25:41.741Z,1.60
2023-02-19T19:28:08.372Z,1.60
2023-02-19T19:30:35.002Z,1.50
2023-02-19T19:33:03.545Z,1.45
2023-02-19T19:35:30.186Z,1.17
2023-02-19T19:37:56.777Z,1.10
2023-02-19T19:40:23.404Z,1.25
2023-02-19T19:42:51.996Z,1.30
2023-02-19T19:45:18.776Z,1.17
2023-02-19T19:47:45.791Z,1.48
2023-02-19T19:50:14.445Z,1.40
2023-02-19T19:52:41.079Z,1.70
2023-02-19T19:55:10.671Z,1.50
2023-02-19T19:57:40.358Z,1.42
2023-02-19T20:00:08.158Z,1.70
2023-02-19T20:02:34.821Z,1.42
2023-02-19T20:05:01.425Z,1.67
2023-02-19T20:07:28.457Z,1.95
2023-02-19T20:09:58.242Z,2.00
2023-02-19T20:12:24.791Z,1.80
2023-02-19T20:14:51.962Z,1.92
2023-02-19T20:17:18.614Z,1.98
2023-02-19T20:19:45.919Z,1.70
2023-02-19T20:22:15.445Z,2.83
2023-02-19T20:24:43.837Z,1.70
2023-02-19T20:27:10.624Z,1.58
2023-02-19T20:29:37.200Z,2.00
2023-02-19T20:32:04.236Z,1.85
2023-02-19T20:34:31.346Z,1.40
2023-02-19T20:36:58.369Z,1.83
2023-02-19T20:39:28.874Z,1.73
2023-02-19T20:41:56.616Z,1.90
2023-02-19T20:44:23.670Z,1.73
2023-02-19T20:46:58.103Z,1.50
2023-02-19T20:49:30.113Z,1.80
2023-02-19T20:52:02.811Z,1.58
2023-02-19T20:54:32.091Z,2.03
2023-02-19T20:57:02.027Z,1.98
2023-02-19T21:04:51.406Z,1.95
2023-02-19T21:07:17.945Z,2.00
2023-02-19T21:09:44.558Z,2.00
2023-02-19T21:12:11.994Z,1.98
2023-02-19T21:14:39.087Z,2.10
2023-02-19T21:18:05.436Z,2.30
2023-02-19T21:20:50.565Z,2.15
2023-02-19T21:23:17.144Z,2.08
2023-02-19T21:25:43.934Z,2.40
2023-02-19T21:28:10.850Z,2.12
2023-02-19T21:30:37.502Z,2.20
2023-02-19T21:33:04.897Z,2.05
2023-02-19T21:35:34.811Z,2.30
2023-02-19T21:38:01.425Z,2.10
2023-02-19T21:40:29.985Z,2.22
2023-02-19T21:42:56.508Z,2.00
2023-02-19T21:45:23.264Z,1.83
2023-02-19T21:47:52.159Z,2.20
2023-02-19T21:54:15.732Z,2.30
2023-02-19T21:56:42.395Z,2.00
2023-02-19T21:59:09.396Z,1.80
2023-02-19T22:01:42.205Z,1.92
2023-02-19T22:04:12.643Z,2.05
2023-02-19T22:06:40.472Z,1.87
2023-02-19T22:09:08.244Z,1.40
2023-02-19T22:11:34.917Z,1.30
2023-02-19T22:14:01.806Z,1.75
2023-02-19T22:16:28.928Z,1.40
2023-02-19T22:18:57.917Z,1.50
2023-02-19T22:21:33.530Z,1.35
2023-02-19T22:26:56.870Z,1.50
2023-02-19T22:29:24.404Z,1.42
2023-02-19T22:31:51.174Z,1.50
2023-02-19T22:34:17.769Z,1.58
2023-02-19T22:36:44.775Z,1.45
2023-02-19T22:39:45.849Z,1.83
2023-02-19T22:42:45.298Z,1.50
2023-02-19T22:45:37.996Z,1.60
2023-02-19T22:48:04.607Z,1.40
2023-02-19T22:50:31.147Z,1.77
2023-02-19T22:52:57.715Z,1.37
2023-02-19T22:55:24.296Z,1.50
2023-02-19T22:57:50.839Z,1.40
2023-02-19T23:02:52.651Z,1.45
2023-02-19T23:05:19.444Z,1.65
2023-02-19T23:07:46.083Z,1.30
2023-02-19T23:10:13.347Z,1.30
2023-02-19T23:12:41.292Z,1.40
2023-02-19T23:15:54.954Z,1.52
2023-02-19T23:18:33.850Z,1.77
2023-02-19T23:21:00.438Z,1.50
2023-02-19T23:23:27.032Z,1.75
2023-02-19T23:25:53.636Z,1.60
2023-02-19T23:28:20.246Z,1.60
2023-02-19T23:30:46.864Z,1.52
2023-02-19T23:33:13.500Z,1.30
2023-02-19T23:35:45.307Z,1.75
2023-02-19T23:38:11.878Z,1.50
2023-02-19T23:40:38.492Z,1.45
2023-02-19T23:43:05.093Z,1.48
2023-02-19T23:45:50.632Z,1.37
2023-02-19T23:48:29.562Z,1.30
2023-02-19T23:50:56.110Z,1.35
2023-02-19T23:53:22.932Z,1.87
2023-02-19T23:55:49.581Z,1.65
2023-02-19T23:58:16.159Z,1.73
